Melvin, Texas
Current Conditions -  °F | °C
As of 2:55 PM on Thursday 18 Dec 2014 (Local Time) from KBBD Reporting Station
Clear Clear  
Wind Chill: 68°   Ceiling: Unl
Heat Index: 68°   Visibility: 10mi
Dew Point: 39°   Wind: 3mph
Humidity: 35%   Direction: 280°W
Pressure: 30.03"   Gusts: NA
Location:  31.2°N, 99.58°W
Report Text: KBBD 182055Z AUTO 28003KT 10SM CLR 20/04 A3003 RMK
Loading
Personal Weather Stations






























Interactive Weather Map New forecast layout! Learn more

10-Day Weather Forecast

Advertisements
Track Severe Weather on mobile